SUR4091 SBJP-SBCF
Flight info
| Callsign | SUR4091 |
|---|---|
| Flight time | N/A |
| Altitude | 38000 |
| Route | UDOSA UZ21 OPTEB |
| Aircraft | A20N/M-SDE2E3FGHIRWXY/LB1 |
Departure
| Time | N/A |
|---|---|
| Airport | Presidente Castro Pinto International Airport (SBJP) |
Arrival
| Time | 2026-05-04 18:53 |
|---|---|
| Airport | Tancredo Neves International Airport (SBCF) |
| Time | Latitude | Longitude | Altitude | Speed | Heading |
|---|---|---|---|---|---|
| 2026-05-04 16:48 | -8.18076 | -35.14405 | 30319 ft | 456 kts | 228° |
| 2026-05-04 16:48 | -8.20187 | -35.16815 | 30598 ft | 458 kts | 228° |
| 2026-05-04 16:49 | -8.24423 | -35.21644 | 31201 ft | 460 kts | 229° |
| 2026-05-04 16:49 | -8.28671 | -35.26484 | 31984 ft | 459 kts | 229° |
| 2026-05-04 16:50 | -8.32869 | -35.31269 | 32802 ft | 457 kts | 229° |
| 2026-05-04 16:50 | -8.37073 | -35.36061 | 33548 ft | 454 kts | 230° |
| 2026-05-04 16:51 | -8.41256 | -35.40832 | 34266 ft | 451 kts | 230° |
| 2026-05-04 16:51 | -8.43334 | -35.43203 | 34581 ft | 450 kts | 230° |
| 2026-05-04 16:51 | -8.47461 | -35.47914 | 35141 ft | 449 kts | 230° |
| 2026-05-04 16:52 | -8.51591 | -35.52631 | 35726 ft | 447 kts | 230° |
| 2026-05-04 16:52 | -8.53654 | -35.54987 | 36039 ft | 447 kts | 230° |
| 2026-05-04 16:53 | -8.57769 | -35.59689 | 36599 ft | 445 kts | 230° |
| 2026-05-04 16:53 | -8.63924 | -35.66725 | 37381 ft | 444 kts | 230° |
| 2026-05-04 16:54 | -8.65948 | -35.69040 | 37631 ft | 444 kts | 230° |
| 2026-05-04 16:55 | -8.74165 | -35.78441 | 38001 ft | 452 kts | 230° |
| 2026-05-04 16:55 | -8.78350 | -35.83232 | 38005 ft | 454 kts | 230° |
| 2026-05-04 16:56 | -8.88773 | -35.95168 | 38011 ft | 453 kts | 230° |
| 2026-05-04 16:57 | -8.95021 | -36.02331 | 38019 ft | 454 kts | 231° |
| 2026-05-04 16:58 | -9.03474 | -36.11866 | 38016 ft | 456 kts | 226° |
| 2026-05-04 17:00 | -9.18799 | -36.23264 | 38010 ft | 451 kts | 216° |
| 2026-05-04 17:01 | -9.31517 | -36.32268 | 38007 ft | 447 kts | 216° |
| 2026-05-04 17:02 | -9.41693 | -36.39472 | 38007 ft | 447 kts | 216° |
| 2026-05-04 17:03 | -9.49348 | -36.44895 | 38011 ft | 447 kts | 216° |
| 2026-05-04 17:03 | -9.57003 | -36.50322 | 38000 ft | 447 kts | 216° |
| 2026-05-04 17:04 | -9.67185 | -36.57543 | 38003 ft | 447 kts | 216° |
| 2026-05-04 17:05 | -9.77356 | -36.64788 | 37998 ft | 447 kts | 216° |
| 2026-05-04 17:06 | -9.85001 | -36.70243 | 37998 ft | 447 kts | 216° |
| 2026-05-04 17:07 | -9.90930 | -36.74474 | 37995 ft | 447 kts | 216° |
| 2026-05-04 17:07 | -9.97713 | -36.79322 | 38001 ft | 447 kts | 216° |
| 2026-05-04 17:08 | -10.05321 | -36.84764 | 37991 ft | 447 kts | 216° |
| 2026-05-04 17:09 | -10.10416 | -36.88409 | 37999 ft | 447 kts | 216° |
| 2026-05-04 17:09 | -10.14645 | -36.91437 | 38002 ft | 447 kts | 216° |
| 2026-05-04 17:10 | -10.27349 | -37.00538 | 37998 ft | 447 kts | 216° |
| 2026-05-04 17:11 | -10.32406 | -37.04164 | 38005 ft | 447 kts | 216° |
| 2026-05-04 17:12 | -10.40072 | -37.09662 | 38007 ft | 453 kts | 216° |
| 2026-05-04 17:13 | -10.52917 | -37.18882 | 38015 ft | 453 kts | 216° |
| 2026-05-04 17:14 | -10.63229 | -37.26291 | 38012 ft | 453 kts | 216° |
| 2026-05-04 17:15 | -10.70922 | -37.31823 | 38015 ft | 453 kts | 216° |
| 2026-05-04 17:16 | -10.81229 | -37.39239 | 38022 ft | 453 kts | 216° |
| 2026-05-04 17:17 | -10.91502 | -37.46637 | 38021 ft | 453 kts | 216° |
| 2026-05-04 17:18 | -11.01815 | -37.54071 | 38022 ft | 453 kts | 216° |
| 2026-05-04 17:19 | -11.12075 | -37.61473 | 38024 ft | 453 kts | 216° |
| 2026-05-04 17:20 | -11.22380 | -37.68914 | 38023 ft | 453 kts | 216° |
| 2026-05-04 17:20 | -11.30076 | -37.74475 | 38025 ft | 453 kts | 216° |
| 2026-05-04 17:21 | -11.40375 | -37.81923 | 38025 ft | 453 kts | 216° |
| 2026-05-04 17:22 | -11.45491 | -37.85625 | 38026 ft | 453 kts | 216° |
| 2026-05-04 17:23 | -11.55771 | -37.93103 | 38025 ft | 453 kts | 217° |
| 2026-05-04 17:24 | -11.63448 | -37.98697 | 38026 ft | 453 kts | 217° |
| 2026-05-04 17:25 | -11.73728 | -38.06191 | 38031 ft | 453 kts | 217° |
| 2026-05-04 17:26 | -11.83977 | -38.13670 | 38033 ft | 453 kts | 217° |
| 2026-05-04 17:27 | -11.96782 | -38.23025 | 38022 ft | 453 kts | 217° |
| 2026-05-04 17:28 | -12.07004 | -38.30501 | 38025 ft | 453 kts | 217° |
| 2026-05-04 17:29 | -12.22372 | -38.41752 | 38025 ft | 452 kts | 217° |
| 2026-05-04 17:31 | -12.35151 | -38.51122 | 38030 ft | 452 kts | 217° |
| 2026-05-04 17:32 | -12.47951 | -38.60518 | 38029 ft | 452 kts | 217° |
| 2026-05-04 17:33 | -12.58143 | -38.68008 | 38032 ft | 452 kts | 217° |
| 2026-05-04 17:34 | -12.68320 | -38.75495 | 38028 ft | 451 kts | 217° |
| 2026-05-04 17:35 | -12.81056 | -38.84883 | 38040 ft | 451 kts | 217° |
| 2026-05-04 17:36 | -12.86155 | -38.88649 | 38029 ft | 451 kts | 217° |
| 2026-05-04 17:36 | -12.91241 | -38.92412 | 38026 ft | 450 kts | 217° |
| 2026-05-04 17:37 | -12.96317 | -38.96174 | 38036 ft | 450 kts | 217° |
| 2026-05-04 17:37 | -13.01368 | -38.99918 | 38038 ft | 450 kts | 217° |
| 2026-05-04 17:38 | -13.06436 | -39.03676 | 38041 ft | 449 kts | 217° |
| 2026-05-04 17:38 | -13.11512 | -39.07442 | 38043 ft | 449 kts | 217° |
| 2026-05-04 17:39 | -13.19066 | -39.13051 | 38030 ft | 448 kts | 217° |
| 2026-05-04 17:39 | -13.24124 | -39.16809 | 38030 ft | 448 kts | 217° |
| 2026-05-04 17:40 | -13.29173 | -39.20561 | 38023 ft | 448 kts | 217° |
| 2026-05-04 17:40 | -13.34185 | -39.24289 | 38038 ft | 447 kts | 217° |
| 2026-05-04 17:41 | -13.39224 | -39.28038 | 38042 ft | 446 kts | 217° |
| 2026-05-04 17:41 | -13.44257 | -39.31785 | 38044 ft | 446 kts | 217° |
| 2026-05-04 17:42 | -13.49232 | -39.35501 | 38042 ft | 445 kts | 218° |
| 2026-05-04 17:42 | -13.54246 | -39.39259 | 38034 ft | 445 kts | 218° |
| 2026-05-04 17:43 | -13.59249 | -39.43010 | 38031 ft | 444 kts | 218° |
| 2026-05-04 17:43 | -13.64238 | -39.46749 | 38034 ft | 444 kts | 218° |
| 2026-05-04 17:44 | -13.69238 | -39.50500 | 38045 ft | 444 kts | 218° |
| 2026-05-04 17:44 | -13.74202 | -39.54225 | 38047 ft | 443 kts | 218° |
| 2026-05-04 17:45 | -13.79185 | -39.57966 | 38030 ft | 443 kts | 218° |
| 2026-05-04 17:45 | -13.84162 | -39.61706 | 38026 ft | 442 kts | 218° |
| 2026-05-04 17:46 | -13.89140 | -39.65447 | 38030 ft | 442 kts | 218° |
| 2026-05-04 17:46 | -13.94083 | -39.69166 | 38042 ft | 441 kts | 218° |
| 2026-05-04 17:47 | -13.99044 | -39.72899 | 38049 ft | 441 kts | 218° |
| 2026-05-04 17:47 | -14.04005 | -39.76633 | 38030 ft | 441 kts | 218° |
| 2026-05-04 17:48 | -14.08915 | -39.80332 | 38036 ft | 440 kts | 218° |
| 2026-05-04 17:48 | -14.13857 | -39.84058 | 38040 ft | 440 kts | 218° |
| 2026-05-04 17:49 | -14.18797 | -39.87783 | 38039 ft | 439 kts | 218° |
| 2026-05-04 17:49 | -14.23739 | -39.91512 | 38042 ft | 439 kts | 218° |
| 2026-05-04 17:50 | -14.28641 | -39.95213 | 38043 ft | 439 kts | 218° |
| 2026-05-04 17:50 | -14.33576 | -39.98941 | 38045 ft | 439 kts | 218° |
| 2026-05-04 17:51 | -14.38503 | -40.02665 | 38052 ft | 439 kts | 218° |
| 2026-05-04 17:51 | -14.43404 | -40.06372 | 38051 ft | 438 kts | 218° |
| 2026-05-04 17:52 | -14.48326 | -40.10096 | 38058 ft | 438 kts | 218° |
| 2026-05-04 17:52 | -14.53216 | -40.13798 | 38064 ft | 438 kts | 218° |
| 2026-05-04 17:53 | -14.58123 | -40.17514 | 38068 ft | 436 kts | 218° |
| 2026-05-04 17:53 | -14.63014 | -40.21222 | 38077 ft | 437 kts | 218° |
| 2026-05-04 17:54 | -14.67913 | -40.24939 | 38084 ft | 437 kts | 218° |
| 2026-05-04 17:54 | -14.72813 | -40.28657 | 38089 ft | 436 kts | 218° |
| 2026-05-04 17:55 | -14.77681 | -40.32354 | 38094 ft | 436 kts | 219° |
| 2026-05-04 17:55 | -14.82573 | -40.36071 | 38091 ft | 435 kts | 219° |
| 2026-05-04 17:56 | -14.87452 | -40.39780 | 38098 ft | 435 kts | 219° |
| 2026-05-04 17:56 | -14.92302 | -40.43469 | 38097 ft | 433 kts | 219° |
| 2026-05-04 17:57 | -14.97174 | -40.47178 | 38102 ft | 435 kts | 219° |
| 2026-05-04 17:57 | -15.02055 | -40.50894 | 38103 ft | 434 kts | 219° |
| 2026-05-04 17:58 | -15.06906 | -40.54591 | 38103 ft | 435 kts | 219° |
| 2026-05-04 17:58 | -15.11764 | -40.58295 | 38102 ft | 435 kts | 219° |
| 2026-05-04 17:59 | -15.16637 | -40.62012 | 38103 ft | 435 kts | 219° |
| 2026-05-04 18:00 | -15.23950 | -40.67596 | 38109 ft | 435 kts | 219° |
| 2026-05-04 18:00 | -15.27986 | -40.70679 | 38112 ft | 433 kts | 219° |
| 2026-05-04 18:01 | -15.33643 | -40.75004 | 38111 ft | 434 kts | 219° |
| 2026-05-04 18:01 | -15.38506 | -40.78723 | 38111 ft | 434 kts | 219° |
| 2026-05-04 18:02 | -15.44984 | -40.83683 | 38114 ft | 434 kts | 219° |
| 2026-05-04 18:02 | -15.49859 | -40.87416 | 38115 ft | 434 kts | 219° |
| 2026-05-04 18:03 | -15.54714 | -40.91137 | 38118 ft | 434 kts | 219° |
| 2026-05-04 18:03 | -15.59538 | -40.94837 | 38120 ft | 434 kts | 219° |
| 2026-05-04 18:04 | -15.64390 | -40.98561 | 38123 ft | 433 kts | 219° |
| 2026-05-04 18:05 | -15.71670 | -41.04151 | 38124 ft | 433 kts | 219° |
| 2026-05-04 18:05 | -15.76520 | -41.07878 | 38126 ft | 433 kts | 219° |
| 2026-05-04 18:06 | -15.83758 | -41.13445 | 38132 ft | 433 kts | 219° |
| 2026-05-04 18:06 | -15.88591 | -41.17165 | 38132 ft | 432 kts | 219° |
| 2026-05-04 18:07 | -15.93426 | -41.20888 | 38135 ft | 432 kts | 219° |
| 2026-05-04 18:07 | -15.98261 | -41.24613 | 38134 ft | 432 kts | 219° |
| 2026-05-04 18:08 | -16.03092 | -41.28339 | 38142 ft | 432 kts | 219° |
| 2026-05-04 18:08 | -16.07893 | -41.32042 | 38141 ft | 432 kts | 219° |
| 2026-05-04 18:09 | -16.17558 | -41.39505 | 38138 ft | 432 kts | 219° |
| 2026-05-04 18:10 | -16.22383 | -41.43233 | 38139 ft | 432 kts | 219° |
| 2026-05-04 18:10 | -16.27210 | -41.46966 | 38138 ft | 431 kts | 219° |
| 2026-05-04 18:11 | -16.31992 | -41.50665 | 38139 ft | 431 kts | 220° |
| 2026-05-04 18:11 | -16.36809 | -41.54395 | 38132 ft | 431 kts | 220° |
| 2026-05-04 18:12 | -16.41632 | -41.58132 | 38131 ft | 431 kts | 220° |
| 2026-05-04 18:12 | -16.46423 | -41.61846 | 38133 ft | 431 kts | 220° |
| 2026-05-04 18:13 | -16.51242 | -41.65584 | 38133 ft | 431 kts | 220° |
| 2026-05-04 18:14 | -16.58463 | -41.71190 | 38132 ft | 431 kts | 220° |
| 2026-05-04 18:14 | -16.63233 | -41.74897 | 38133 ft | 430 kts | 220° |
| 2026-05-04 18:15 | -16.72845 | -41.82371 | 38131 ft | 430 kts | 220° |
| 2026-05-04 18:16 | -16.77646 | -41.86108 | 38130 ft | 430 kts | 220° |
| 2026-05-04 18:16 | -16.82417 | -41.89824 | 38130 ft | 429 kts | 220° |
| 2026-05-04 18:17 | -16.89590 | -41.95417 | 38129 ft | 429 kts | 220° |
| 2026-05-04 18:18 | -16.96769 | -42.01024 | 38132 ft | 429 kts | 220° |
| 2026-05-04 18:18 | -17.01528 | -42.04741 | 38128 ft | 428 kts | 220° |
| 2026-05-04 18:19 | -17.08660 | -42.10319 | 38131 ft | 427 kts | 220° |
| 2026-05-04 18:19 | -17.13427 | -42.14050 | 38136 ft | 428 kts | 220° |
| 2026-05-04 18:20 | -17.18188 | -42.17779 | 38137 ft | 427 kts | 220° |
| 2026-05-04 18:20 | -17.22916 | -42.21485 | 38133 ft | 427 kts | 220° |
| 2026-05-04 18:21 | -17.27676 | -42.25217 | 38143 ft | 426 kts | 220° |
| 2026-05-04 18:21 | -17.32421 | -42.28941 | 38140 ft | 426 kts | 220° |
| 2026-05-04 18:22 | -17.37158 | -42.32660 | 38149 ft | 425 kts | 220° |
| 2026-05-04 18:22 | -17.41873 | -42.36365 | 38142 ft | 425 kts | 220° |
| 2026-05-04 18:23 | -17.46620 | -42.40099 | 38144 ft | 426 kts | 220° |
| 2026-05-04 18:23 | -17.51359 | -42.43828 | 38143 ft | 426 kts | 221° |
| 2026-05-04 18:24 | -17.56091 | -42.47553 | 38149 ft | 425 kts | 221° |
| 2026-05-04 18:24 | -17.60801 | -42.51263 | 38147 ft | 425 kts | 221° |
| 2026-05-04 18:25 | -17.65529 | -42.54991 | 38143 ft | 425 kts | 221° |
| 2026-05-04 18:25 | -17.70250 | -42.58715 | 38147 ft | 424 kts | 221° |
| 2026-05-04 18:26 | -17.74938 | -42.62417 | 38143 ft | 424 kts | 221° |
| 2026-05-04 18:26 | -17.79653 | -42.66142 | 38144 ft | 423 kts | 221° |
| 2026-05-04 18:27 | -17.84354 | -42.69857 | 38147 ft | 423 kts | 221° |
| 2026-05-04 18:27 | -17.89052 | -42.73574 | 38147 ft | 422 kts | 221° |
| 2026-05-04 18:28 | -17.93739 | -42.77285 | 38140 ft | 422 kts | 221° |
| 2026-05-04 18:28 | -17.98407 | -42.80983 | 38141 ft | 422 kts | 221° |
| 2026-05-04 18:29 | -18.03089 | -42.84694 | 38140 ft | 422 kts | 221° |
| 2026-05-04 18:29 | -18.07783 | -42.88418 | 38143 ft | 422 kts | 221° |
| 2026-05-04 18:30 | -18.14773 | -42.93966 | 38139 ft | 421 kts | 221° |
| 2026-05-04 18:30 | -18.17102 | -42.95817 | 38033 ft | 418 kts | 221° |
| 2026-05-04 18:31 | -18.19419 | -42.97657 | 37527 ft | 417 kts | 221° |
| 2026-05-04 18:31 | -18.21749 | -42.99512 | 36692 ft | 420 kts | 221° |
| 2026-05-04 18:31 | -18.24100 | -43.01384 | 35757 ft | 426 kts | 221° |
| 2026-05-04 18:31 | -18.26461 | -43.03265 | 34827 ft | 431 kts | 221° |
| 2026-05-04 18:32 | -18.28871 | -43.05184 | 33822 ft | 437 kts | 220° |
| 2026-05-04 18:32 | -18.31314 | -43.07129 | 32790 ft | 442 kts | 221° |
| 2026-05-04 18:32 | -18.33751 | -43.09068 | 31810 ft | 445 kts | 221° |
| 2026-05-04 18:32 | -18.36237 | -43.11047 | 30826 ft | 448 kts | 221° |
| 2026-05-04 18:33 | -18.38715 | -43.13020 | 30164 ft | 444 kts | 221° |
| 2026-05-04 18:33 | -18.41167 | -43.14966 | 29472 ft | 439 kts | 220° |
| 2026-05-04 18:33 | -18.43605 | -43.16895 | 28739 ft | 435 kts | 220° |
| 2026-05-04 18:33 | -18.45981 | -43.18775 | 27986 ft | 431 kts | 220° |
| 2026-05-04 18:34 | -18.48382 | -43.20675 | 27252 ft | 429 kts | 220° |
| 2026-05-04 18:34 | -18.50760 | -43.22560 | 26596 ft | 425 kts | 220° |
| 2026-05-04 18:34 | -18.53118 | -43.24430 | 25916 ft | 422 kts | 220° |
| 2026-05-04 18:34 | -18.55454 | -43.26284 | 25254 ft | 419 kts | 220° |
| 2026-05-04 18:35 | -18.57790 | -43.28138 | 24598 ft | 417 kts | 220° |
| 2026-05-04 18:35 | -18.60070 | -43.29949 | 23973 ft | 414 kts | 220° |
| 2026-05-04 18:35 | -18.62367 | -43.31773 | 23301 ft | 412 kts | 220° |
| 2026-05-04 18:35 | -18.64648 | -43.33586 | 22617 ft | 408 kts | 219° |
| 2026-05-04 18:36 | -18.66913 | -43.35385 | 21937 ft | 405 kts | 219° |
| 2026-05-04 18:36 | -18.69165 | -43.37177 | 21276 ft | 402 kts | 219° |
| 2026-05-04 18:36 | -18.71363 | -43.38926 | 20638 ft | 399 kts | 219° |
| 2026-05-04 18:36 | -18.73576 | -43.40688 | 19994 ft | 397 kts | 219° |
| 2026-05-04 18:37 | -18.75780 | -43.42442 | 19375 ft | 394 kts | 218° |
| 2026-05-04 18:37 | -18.77965 | -43.44182 | 18786 ft | 391 kts | 218° |
| 2026-05-04 18:37 | -18.80134 | -43.45909 | 18151 ft | 389 kts | 218° |
| 2026-05-04 18:37 | -18.82280 | -43.47618 | 17574 ft | 384 kts | 218° |
| 2026-05-04 18:38 | -18.84363 | -43.49276 | 17203 ft | 374 kts | 218° |
| 2026-05-04 18:38 | -18.86438 | -43.50928 | 16658 ft | 370 kts | 218° |
| 2026-05-04 18:38 | -18.88479 | -43.52555 | 16270 ft | 363 kts | 218° |
| 2026-05-04 18:38 | -18.90488 | -43.54157 | 16153 ft | 364 kts | 218° |
| 2026-05-04 18:39 | -18.92505 | -43.55768 | 16128 ft | 370 kts | 218° |
| 2026-05-04 18:39 | -18.94565 | -43.57412 | 16126 ft | 370 kts | 218° |
| 2026-05-04 18:39 | -18.96625 | -43.59055 | 16085 ft | 368 kts | 218° |
| 2026-05-04 18:39 | -18.98631 | -43.60656 | 15686 ft | 362 kts | 218° |
| 2026-05-04 18:40 | -19.00643 | -43.62262 | 14950 ft | 360 kts | 218° |
| 2026-05-04 18:40 | -19.02641 | -43.63854 | 14174 ft | 358 kts | 218° |
| 2026-05-04 18:40 | -19.04625 | -43.65417 | 13356 ft | 354 kts | 217° |
| 2026-05-04 18:40 | -19.06603 | -43.66970 | 12584 ft | 349 kts | 217° |
| 2026-05-04 18:41 | -19.08478 | -43.68441 | 12349 ft | 329 kts | 217° |
| 2026-05-04 18:41 | -19.10264 | -43.69844 | 12162 ft | 309 kts | 217° |
| 2026-05-04 18:41 | -19.11942 | -43.71164 | 11916 ft | 294 kts | 217° |
| 2026-05-04 18:41 | -19.13577 | -43.72452 | 11397 ft | 291 kts | 217° |
| 2026-05-04 18:42 | -19.15206 | -43.73737 | 11098 ft | 304 kts | 217° |
| 2026-05-04 18:42 | -19.17016 | -43.75164 | 10879 ft | 341 kts | 217° |
| 2026-05-04 18:42 | -19.18922 | -43.76667 | 10693 ft | 345 kts | 217° |
| 2026-05-04 18:42 | -19.20836 | -43.78177 | 10423 ft | 336 kts | 217° |
| 2026-05-04 18:43 | -19.22665 | -43.79620 | 10272 ft | 318 kts | 216° |
| 2026-05-04 18:43 | -19.24390 | -43.80981 | 10060 ft | 301 kts | 216° |
| 2026-05-04 18:43 | -19.25911 | -43.82226 | 9560 ft | 297 kts | 221° |
| 2026-05-04 18:43 | -19.27342 | -43.83756 | 8948 ft | 295 kts | 227° |
| 2026-05-04 18:44 | -19.28742 | -43.85336 | 8345 ft | 292 kts | 227° |
| 2026-05-04 18:44 | -19.29215 | -43.85868 | 8148 ft | 292 kts | 227° |
| 2026-05-04 18:44 | -19.31531 | -43.88462 | 7331 ft | 290 kts | 226° |
| 2026-05-04 18:44 | -19.32909 | -43.90003 | 7091 ft | 284 kts | 226° |
| 2026-05-04 18:45 | -19.34228 | -43.91480 | 7015 ft | 265 kts | 226° |
| 2026-05-04 18:45 | -19.35420 | -43.92815 | 7014 ft | 241 kts | 226° |
| 2026-05-04 18:45 | -19.36591 | -43.94127 | 7027 ft | 248 kts | 226° |
| 2026-05-04 18:45 | -19.37767 | -43.95443 | 7030 ft | 243 kts | 226° |
| 2026-05-04 18:46 | -19.38928 | -43.96745 | 7019 ft | 242 kts | 226° |
| 2026-05-04 18:46 | -19.40064 | -43.98017 | 6923 ft | 237 kts | 226° |
| 2026-05-04 18:46 | -19.41173 | -43.99261 | 6850 ft | 226 kts | 227° |
| 2026-05-04 18:46 | -19.42206 | -44.00419 | 6775 ft | 209 kts | 227° |
| 2026-05-04 18:47 | -19.43198 | -44.01531 | 6388 ft | 207 kts | 227° |
| 2026-05-04 18:47 | -19.44169 | -44.02659 | 5966 ft | 204 kts | 228° |
| 2026-05-04 18:47 | -19.45078 | -44.03764 | 5623 ft | 193 kts | 229° |
| 2026-05-04 18:47 | -19.45980 | -44.04873 | 5562 ft | 204 kts | 228° |
| 2026-05-04 18:48 | -19.46919 | -44.06019 | 5554 ft | 206 kts | 228° |
| 2026-05-04 18:48 | -19.47806 | -44.07097 | 5558 ft | 182 kts | 228° |
| 2026-05-04 18:48 | -19.48589 | -44.08044 | 5545 ft | 163 kts | 226° |
| 2026-05-04 18:48 | -19.49575 | -44.08672 | 5563 ft | 171 kts | 186° |
| 2026-05-04 18:49 | -19.50715 | -44.08476 | 5570 ft | 165 kts | 152° |
| 2026-05-04 18:49 | -19.51676 | -44.07820 | 5462 ft | 163 kts | 137° |
| 2026-05-04 18:49 | -19.52503 | -44.07037 | 5274 ft | 160 kts | 134° |
| 2026-05-04 18:49 | -19.53336 | -44.06249 | 5072 ft | 160 kts | 136° |
| 2026-05-04 18:50 | -19.54168 | -44.05473 | 4867 ft | 158 kts | 136° |
| 2026-05-04 18:50 | -19.54993 | -44.04703 | 4669 ft | 158 kts | 136° |
| 2026-05-04 18:50 | -19.55820 | -44.03929 | 4460 ft | 157 kts | 136° |
| 2026-05-04 18:50 | -19.56631 | -44.03173 | 4259 ft | 152 kts | 136° |
| 2026-05-04 18:51 | -19.57405 | -44.02449 | 4063 ft | 149 kts | 136° |
| 2026-05-04 18:51 | -19.57927 | -44.01962 | 3932 ft | 147 kts | 136° |
| 2026-05-04 18:51 | -19.58463 | -44.01463 | 3813 ft | 150 kts | 136° |
| 2026-05-04 18:51 | -19.59522 | -44.00475 | 3565 ft | 154 kts | 137° |
| 2026-05-04 18:52 | -19.60348 | -43.99707 | 3370 ft | 161 kts | 135° |
| 2026-05-04 18:52 | -19.60898 | -43.99188 | 3222 ft | 155 kts | 136° |
| 2026-05-04 18:52 | -19.61918 | -43.98228 | 2959 ft | 143 kts | 135° |
| 2026-05-04 18:52 | -19.62412 | -43.97758 | 2841 ft | 138 kts | 136° |
| 2026-05-04 18:53 | -19.63012 | -43.97200 | 2820 ft | 75 kts | 140° |
| 2026-05-04 18:53 | -19.63211 | -43.97012 | 2821 ft | 22 kts | 137° |
| 2026-05-04 18:53 | -19.63338 | -43.96899 | 2820 ft | 25 kts | 140° |
| 2026-05-04 18:53 | -19.63456 | -43.96790 | 2819 ft | 23 kts | 138° |
| 2026-05-04 18:54 | -19.63548 | -43.96678 | 2820 ft | 15 kts | 123° |
| 2026-05-04 18:54 | -19.63592 | -43.96580 | 2818 ft | 8 kts | 109° |
| 2026-05-04 18:54 | -19.63599 | -43.96561 | 2818 ft | 2 kts | 109° |
| 2026-05-04 18:54 | -19.63607 | -43.96534 | 2818 ft | 5 kts | 108° |
| 2026-05-04 18:55 | -19.63622 | -43.96487 | 2818 ft | 8 kts | 109° |
| 2026-05-04 18:55 | -19.63614 | -43.96359 | 2820 ft | 11 kts | 31° |
| 2026-05-04 18:55 | -19.63537 | -43.96315 | 2819 ft | 14 kts | 27° |
| 2026-05-04 18:56 | -19.63453 | -43.96288 | 2819 ft | 12 kts | 340° |
| 2026-05-04 18:56 | -19.63409 | -43.96356 | 2753 ft | 12 kts | 296° |
| 2026-05-04 18:56 | -19.63374 | -43.96426 | 2754 ft | 0 kts | 304° |
| 2026-05-04 18:56 | -19.63365 | -43.96437 | 2753 ft | 4 kts | 311° |
| 2026-05-04 18:57 | -19.63344 | -43.96437 | 2752 ft | 3 kts | 34° |
| 2026-05-04 18:57 | -19.63329 | -43.96417 | 2754 ft | 2 kts | 48° |
| 2026-05-04 18:57 | -19.63323 | -43.96409 | 2753 ft | 1 kts | 51° |
| 2026-05-04 18:57 | -19.63322 | -43.96407 | 2753 ft | 0 kts | 51° |